sensor_id;sensor_type;location;lat;lon;timestamp;P1;durP1;ratioP1;P2;durP2;ratioP2
39486;SDS011;25173;50.430;18.926;2023-08-08T00:01:37;4.22;;;1.05;;
39486;SDS011;25173;50.430;18.926;2023-08-08T00:04:37;3.72;;;1.42;;
39486;SDS011;25173;50.430;18.926;2023-08-08T00:07:38;3.30;;;1.58;;
39486;SDS011;25173;50.430;18.926;2023-08-08T00:10:38;1.90;;;1.20;;
39486;SDS011;25173;50.430;18.926;2023-08-08T00:13:39;3.15;;;0.82;;
39486;SDS011;25173;50.430;18.926;2023-08-08T00:16:40;4.63;;;1.05;;
39486;SDS011;25173;50.430;18.926;2023-08-08T00:19:40;1.85;;;0.70;;
39486;SDS011;25173;50.430;18.926;2023-08-08T00:22:41;3.90;;;1.00;;
39486;SDS011;25173;50.430;18.926;2023-08-08T00:25:41;4.50;;;1.48;;
39486;SDS011;25173;50.430;18.926;2023-08-08T00:28:42;1.33;;;0.98;;
39486;SDS011;25173;50.430;18.926;2023-08-08T00:31:42;3.20;;;1.40;;
39486;SDS011;25173;50.430;18.926;2023-08-08T00:34:43;3.03;;;1.00;;
39486;SDS011;25173;50.430;18.926;2023-08-08T00:37:44;3.13;;;1.20;;
39486;SDS011;25173;50.430;18.926;2023-08-08T00:40:45;1.77;;;1.15;;
39486;SDS011;25173;50.430;18.926;2023-08-08T00:43:45;2.88;;;1.20;;
39486;SDS011;25173;50.430;18.926;2023-08-08T00:46:46;4.45;;;1.10;;
39486;SDS011;25173;50.430;18.926;2023-08-08T00:49:47;3.03;;;1.73;;
39486;SDS011;25173;50.430;18.926;2023-08-08T00:52:48;3.70;;;1.65;;
39486;SDS011;25173;50.430;18.926;2023-08-08T00:55:50;2.88;;;1.40;;
39486;SDS011;25173;50.430;18.926;2023-08-08T00:58:51;4.93;;;1.38;;
39486;SDS011;25173;50.430;18.926;2023-08-08T01:01:52;2.17;;;1.00;;
39486;SDS011;25173;50.430;18.926;2023-08-08T01:04:52;2.03;;;1.20;;
39486;SDS011;25173;50.430;18.926;2023-08-08T01:07:54;5.72;;;1.25;;
39486;SDS011;25173;50.430;18.926;2023-08-08T01:10:59;5.93;;;1.40;;
39486;SDS011;25173;50.430;18.926;2023-08-08T01:14:00;4.72;;;2.00;;
39486;SDS011;25173;50.430;18.926;2023-08-08T01:17:02;2.22;;;1.60;;
39486;SDS011;25173;50.430;18.926;2023-08-08T01:20:04;3.97;;;1.42;;
39486;SDS011;25173;50.430;18.926;2023-08-08T01:26:20;3.10;;;1.45;;
39486;SDS011;25173;50.430;18.926;2023-08-08T01:29:21;4.20;;;1.45;;
39486;SDS011;25173;50.430;18.926;2023-08-08T01:32:22;2.92;;;1.40;;
39486;SDS011;25173;50.430;18.926;2023-08-08T01:35:23;7.97;;;1.52;;
39486;SDS011;25173;50.430;18.926;2023-08-08T01:38:31;4.65;;;1.88;;
39486;SDS011;25173;50.430;18.926;2023-08-08T01:41:33;3.92;;;1.13;;
39486;SDS011;25173;50.430;18.926;2023-08-08T01:44:37;7.85;;;1.50;;
39486;SDS011;25173;50.430;18.926;2023-08-08T01:47:40;2.85;;;1.52;;
39486;SDS011;25173;50.430;18.926;2023-08-08T01:50:41;3.13;;;1.60;;
39486;SDS011;25173;50.430;18.926;2023-08-08T01:53:42;5.32;;;1.90;;
39486;SDS011;25173;50.430;18.926;2023-08-08T01:56:43;4.00;;;1.35;;
39486;SDS011;25173;50.430;18.926;2023-08-08T01:59:46;4.93;;;1.60;;
39486;SDS011;25173;50.430;18.926;2023-08-08T02:02:48;9.38;;;1.60;;
39486;SDS011;25173;50.430;18.926;2023-08-08T02:05:48;5.22;;;1.65;;
39486;SDS011;25173;50.430;18.926;2023-08-08T02:08:49;5.97;;;1.85;;
39486;SDS011;25173;50.430;18.926;2023-08-08T02:11:50;3.45;;;1.55;;
39486;SDS011;25173;50.430;18.926;2023-08-08T02:14:50;4.90;;;1.52;;
39486;SDS011;25173;50.430;18.926;2023-08-08T02:17:52;2.63;;;1.27;;
39486;SDS011;25173;50.430;18.926;2023-08-08T02:20:52;4.28;;;1.65;;
39486;SDS011;25173;50.430;18.926;2023-08-08T02:23:53;9.15;;;1.80;;
39486;SDS011;25173;50.430;18.926;2023-08-08T02:26:53;6.53;;;1.50;;
39486;SDS011;25173;50.430;18.926;2023-08-08T02:29:54;3.22;;;1.70;;
39486;SDS011;25173;50.430;18.926;2023-08-08T02:32:54;4.78;;;1.58;;
39486;SDS011;25173;50.430;18.926;2023-08-08T02:35:55;3.58;;;1.52;;
39486;SDS011;25173;50.430;18.926;2023-08-08T02:38:56;5.57;;;1.60;;
39486;SDS011;25173;50.430;18.926;2023-08-08T02:41:56;5.03;;;1.45;;
39486;SDS011;25173;50.430;18.926;2023-08-08T02:44:58;5.20;;;1.70;;
39486;SDS011;25173;50.430;18.926;2023-08-08T02:47:59;4.40;;;1.98;;
39486;SDS011;25173;50.430;18.926;2023-08-08T02:50:59;6.85;;;1.58;;
39486;SDS011;25173;50.430;18.926;2023-08-08T02:54:01;3.25;;;2.25;;
39486;SDS011;25173;50.430;18.926;2023-08-08T02:57:04;9.45;;;2.60;;
39486;SDS011;25173;50.430;18.926;2023-08-08T03:00:05;2.35;;;1.52;;
39486;SDS011;25173;50.430;18.926;2023-08-08T03:03:12;4.75;;;1.20;;
39486;SDS011;25173;50.430;18.926;2023-08-08T03:06:14;2.90;;;1.58;;
39486;SDS011;25173;50.430;18.926;2023-08-08T03:09:15;6.95;;;1.60;;
39486;SDS011;25173;50.430;18.926;2023-08-08T03:12:16;3.08;;;1.63;;
39486;SDS011;25173;50.430;18.926;2023-08-08T03:15:17;6.25;;;1.75;;
39486;SDS011;25173;50.430;18.926;2023-08-08T03:18:18;5.40;;;1.77;;
39486;SDS011;25173;50.430;18.926;2023-08-08T03:21:18;5.32;;;1.98;;
39486;SDS011;25173;50.430;18.926;2023-08-08T03:24:19;3.63;;;1.60;;
39486;SDS011;25173;50.430;18.926;2023-08-08T03:27:19;4.95;;;1.38;;
39486;SDS011;25173;50.430;18.926;2023-08-08T03:30:24;1.58;;;1.33;;
39486;SDS011;25173;50.430;18.926;2023-08-08T03:33:25;4.53;;;1.50;;
39486;SDS011;25173;50.430;18.926;2023-08-08T03:36:26;6.57;;;1.50;;
39486;SDS011;25173;50.430;18.926;2023-08-08T03:39:27;6.07;;;1.65;;
39486;SDS011;25173;50.430;18.926;2023-08-08T03:42:28;3.42;;;1.15;;
39486;SDS011;25173;50.430;18.926;2023-08-08T03:45:29;5.75;;;1.52;;
39486;SDS011;25173;50.430;18.926;2023-08-08T03:48:36;4.80;;;1.30;;
39486;SDS011;25173;50.430;18.926;2023-08-08T03:51:37;3.35;;;1.30;;
39486;SDS011;25173;50.430;18.926;2023-08-08T03:54:38;4.95;;;1.40;;
39486;SDS011;25173;50.430;18.926;2023-08-08T03:57:39;3.05;;;1.25;;
39486;SDS011;25173;50.430;18.926;2023-08-08T04:00:40;2.15;;;1.23;;
39486;SDS011;25173;50.430;18.926;2023-08-08T04:03:46;2.00;;;1.20;;
39486;SDS011;25173;50.430;18.926;2023-08-08T04:06:46;2.10;;;1.30;;
39486;SDS011;25173;50.430;18.926;2023-08-08T04:09:47;4.80;;;1.33;;
39486;SDS011;25173;50.430;18.926;2023-08-08T04:12:47;4.20;;;1.13;;
39486;SDS011;25173;50.430;18.926;2023-08-08T04:15:49;5.88;;;1.45;;
39486;SDS011;25173;50.430;18.926;2023-08-08T04:18:52;5.22;;;1.80;;
39486;SDS011;25173;50.430;18.926;2023-08-08T04:21:52;7.13;;;1.67;;
39486;SDS011;25173;50.430;18.926;2023-08-08T04:24:53;5.63;;;1.48;;
39486;SDS011;25173;50.430;18.926;2023-08-08T04:27:53;2.63;;;1.20;;
39486;SDS011;25173;50.430;18.926;2023-08-08T04:30:54;3.92;;;1.30;;
39486;SDS011;25173;50.430;18.926;2023-08-08T04:33:54;3.25;;;1.00;;
39486;SDS011;25173;50.430;18.926;2023-08-08T04:37:00;4.55;;;1.55;;
39486;SDS011;25173;50.430;18.926;2023-08-08T04:40:00;6.00;;;1.50;;
39486;SDS011;25173;50.430;18.926;2023-08-08T04:43:01;5.13;;;1.55;;
39486;SDS011;25173;50.430;18.926;2023-08-08T04:46:01;3.13;;;1.50;;
39486;SDS011;25173;50.430;18.926;2023-08-08T04:49:02;5.10;;;1.73;;
39486;SDS011;25173;50.430;18.926;2023-08-08T04:52:02;1.55;;;1.40;;
39486;SDS011;25173;50.430;18.926;2023-08-08T04:55:04;4.80;;;1.90;;
39486;SDS011;25173;50.430;18.926;2023-08-08T04:58:05;3.42;;;1.75;;
39486;SDS011;25173;50.430;18.926;2023-08-08T05:01:06;6.05;;;1.80;;
39486;SDS011;25173;50.430;18.926;2023-08-08T05:04:09;3.30;;;1.60;;
39486;SDS011;25173;50.430;18.926;2023-08-08T05:07:10;5.15;;;1.48;;
39486;SDS011;25173;50.430;18.926;2023-08-08T05:10:10;4.03;;;1.60;;
39486;SDS011;25173;50.430;18.926;2023-08-08T05:13:11;7.13;;;1.77;;
39486;SDS011;25173;50.430;18.926;2023-08-08T05:16:12;5.57;;;1.85;;
39486;SDS011;25173;50.430;18.926;2023-08-08T05:19:13;4.03;;;1.83;;
39486;SDS011;25173;50.430;18.926;2023-08-08T05:22:14;6.10;;;1.60;;
39486;SDS011;25173;50.430;18.926;2023-08-08T05:25:14;2.78;;;1.50;;
39486;SDS011;25173;50.430;18.926;2023-08-08T05:28:15;9.77;;;1.52;;
39486;SDS011;25173;50.430;18.926;2023-08-08T05:31:15;5.60;;;1.90;;
39486;SDS011;25173;50.430;18.926;2023-08-08T05:34:16;5.03;;;1.60;;
39486;SDS011;25173;50.430;18.926;2023-08-08T05:37:16;7.38;;;1.67;;
39486;SDS011;25173;50.430;18.926;2023-08-08T05:40:17;4.28;;;1.20;;
39486;SDS011;25173;50.430;18.926;2023-08-08T05:43:17;3.33;;;1.63;;
39486;SDS011;25173;50.430;18.926;2023-08-08T05:46:18;3.42;;;1.75;;
39486;SDS011;25173;50.430;18.926;2023-08-08T05:49:19;3.85;;;1.42;;
39486;SDS011;25173;50.430;18.926;2023-08-08T05:52:20;3.95;;;1.58;;
39486;SDS011;25173;50.430;18.926;2023-08-08T05:55:21;2.35;;;1.42;;
39486;SDS011;25173;50.430;18.926;2023-08-08T05:58:21;2.70;;;1.67;;
39486;SDS011;25173;50.430;18.926;2023-08-08T06:01:22;2.15;;;1.50;;
39486;SDS011;25173;50.430;18.926;2023-08-08T06:04:23;2.95;;;1.60;;
39486;SDS011;25173;50.430;18.926;2023-08-08T06:07:24;4.55;;;1.52;;
39486;SDS011;25173;50.430;18.926;2023-08-08T06:10:25;4.85;;;1.13;;
39486;SDS011;25173;50.430;18.926;2023-08-08T06:13:25;1.75;;;1.27;;
39486;SDS011;25173;50.430;18.926;2023-08-08T06:16:26;2.50;;;1.45;;
39486;SDS011;25173;50.430;18.926;2023-08-08T06:19:26;1.67;;;1.40;;
39486;SDS011;25173;50.430;18.926;2023-08-08T06:22:27;2.42;;;1.77;;
39486;SDS011;25173;50.430;18.926;2023-08-08T06:25:27;4.82;;;2.15;;
39486;SDS011;25173;50.430;18.926;2023-08-08T06:28:28;4.22;;;1.50;;
39486;SDS011;25173;50.430;18.926;2023-08-08T06:31:30;6.45;;;1.60;;
39486;SDS011;25173;50.430;18.926;2023-08-08T06:34:31;2.95;;;1.60;;
39486;SDS011;25173;50.430;18.926;2023-08-08T06:37:31;2.05;;;1.40;;
39486;SDS011;25173;50.430;18.926;2023-08-08T06:40:32;2.95;;;1.67;;
39486;SDS011;25173;50.430;18.926;2023-08-08T06:43:32;4.25;;;1.95;;
39486;SDS011;25173;50.430;18.926;2023-08-08T06:46:33;2.55;;;1.30;;
39486;SDS011;25173;50.430;18.926;2023-08-08T06:49:33;2.70;;;1.50;;
39486;SDS011;25173;50.430;18.926;2023-08-08T06:52:34;2.78;;;1.65;;
39486;SDS011;25173;50.430;18.926;2023-08-08T06:55:35;2.95;;;1.30;;
39486;SDS011;25173;50.430;18.926;2023-08-08T06:58:36;6.10;;;1.52;;
39486;SDS011;25173;50.430;18.926;2023-08-08T07:01:36;2.22;;;1.60;;
39486;SDS011;25173;50.430;18.926;2023-08-08T07:04:37;3.08;;;1.67;;
39486;SDS011;25173;50.430;18.926;2023-08-08T07:07:37;3.30;;;1.45;;
39486;SDS011;25173;50.430;18.926;2023-08-08T07:10:38;4.85;;;1.38;;
39486;SDS011;25173;50.430;18.926;2023-08-08T07:13:40;5.82;;;1.45;;
39486;SDS011;25173;50.430;18.926;2023-08-08T07:16:40;4.05;;;1.50;;
39486;SDS011;25173;50.430;18.926;2023-08-08T07:19:41;3.28;;;1.45;;
39486;SDS011;25173;50.430;18.926;2023-08-08T07:22:42;5.10;;;1.73;;
39486;SDS011;25173;50.430;18.926;2023-08-08T07:25:43;4.25;;;1.80;;
39486;SDS011;25173;50.430;18.926;2023-08-08T07:28:45;4.15;;;1.65;;
39486;SDS011;25173;50.430;18.926;2023-08-08T07:31:45;2.03;;;1.42;;
39486;SDS011;25173;50.430;18.926;2023-08-08T07:34:47;4.00;;;1.58;;
39486;SDS011;25173;50.430;18.926;2023-08-08T07:37:47;3.10;;;1.50;;
39486;SDS011;25173;50.430;18.926;2023-08-08T07:40:48;4.57;;;1.60;;
39486;SDS011;25173;50.430;18.926;2023-08-08T07:43:48;2.63;;;1.27;;
39486;SDS011;25173;50.430;18.926;2023-08-08T07:46:49;5.10;;;1.63;;
39486;SDS011;25173;50.430;18.926;2023-08-08T07:49:50;3.38;;;1.70;;
39486;SDS011;25173;50.430;18.926;2023-08-08T07:52:51;2.47;;;1.33;;
39486;SDS011;25173;50.430;18.926;2023-08-08T07:55:52;3.53;;;1.65;;
39486;SDS011;25173;50.430;18.926;2023-08-08T07:58:53;5.85;;;2.08;;
39486;SDS011;25173;50.430;18.926;2023-08-08T08:01:54;4.63;;;1.55;;
39486;SDS011;25173;50.430;18.926;2023-08-08T08:04:56;2.75;;;1.30;;
39486;SDS011;25173;50.430;18.926;2023-08-08T08:07:56;2.25;;;1.35;;
39486;SDS011;25173;50.430;18.926;2023-08-08T08:10:57;2.95;;;1.38;;
39486;SDS011;25173;50.430;18.926;2023-08-08T08:13:57;3.53;;;1.80;;
39486;SDS011;25173;50.430;18.926;2023-08-08T08:16:58;4.72;;;2.40;;
39486;SDS011;25173;50.430;18.926;2023-08-08T08:19:58;3.50;;;1.33;;
39486;SDS011;25173;50.430;18.926;2023-08-08T08:22:59;3.85;;;1.83;;
39486;SDS011;25173;50.430;18.926;2023-08-08T08:25:59;8.93;;;1.75;;
39486;SDS011;25173;50.430;18.926;2023-08-08T08:29:00;2.47;;;1.35;;
39486;SDS011;25173;50.430;18.926;2023-08-08T08:32:01;4.35;;;1.80;;
39486;SDS011;25173;50.430;18.926;2023-08-08T08:35:01;3.17;;;1.40;;
39486;SDS011;25173;50.430;18.926;2023-08-08T08:38:04;3.70;;;1.50;;
39486;SDS011;25173;50.430;18.926;2023-08-08T08:41:04;5.10;;;1.42;;
39486;SDS011;25173;50.430;18.926;2023-08-08T08:44:05;3.55;;;1.70;;
39486;SDS011;25173;50.430;18.926;2023-08-08T08:47:07;3.90;;;1.70;;
39486;SDS011;25173;50.430;18.926;2023-08-08T08:50:11;3.30;;;1.60;;
39486;SDS011;25173;50.430;18.926;2023-08-08T08:53:13;2.47;;;1.15;;
39486;SDS011;25173;50.430;18.926;2023-08-08T08:56:15;2.35;;;1.25;;
39486;SDS011;25173;50.430;18.926;2023-08-08T08:59:17;1.73;;;1.30;;
39486;SDS011;25173;50.430;18.926;2023-08-08T09:02:18;3.97;;;1.70;;
39486;SDS011;25173;50.430;18.926;2023-08-08T09:05:19;2.83;;;1.40;;
39486;SDS011;25173;50.430;18.926;2023-08-08T09:08:23;4.22;;;1.40;;
39486;SDS011;25173;50.430;18.926;2023-08-08T09:11:24;1.65;;;1.23;;
39486;SDS011;25173;50.430;18.926;2023-08-08T09:14:25;8.13;;;2.38;;
39486;SDS011;25173;50.430;18.926;2023-08-08T09:17:27;3.60;;;1.48;;
39486;SDS011;25173;50.430;18.926;2023-08-08T09:20:28;4.65;;;1.77;;
39486;SDS011;25173;50.430;18.926;2023-08-08T09:23:29;2.85;;;1.80;;
39486;SDS011;25173;50.430;18.926;2023-08-08T09:26:30;6.13;;;1.75;;
39486;SDS011;25173;50.430;18.926;2023-08-08T09:29:30;2.33;;;1.27;;
39486;SDS011;25173;50.430;18.926;2023-08-08T09:32:31;2.13;;;1.30;;
39486;SDS011;25173;50.430;18.926;2023-08-08T09:35:32;1.10;;;1.00;;
39486;SDS011;25173;50.430;18.926;2023-08-08T09:38:32;3.45;;;2.00;;
39486;SDS011;25173;50.430;18.926;2023-08-08T09:41:33;4.72;;;1.50;;
39486;SDS011;25173;50.430;18.926;2023-08-08T09:44:34;6.93;;;1.50;;
39486;SDS011;25173;50.430;18.926;2023-08-08T09:47:40;3.25;;;1.40;;
39486;SDS011;25173;50.430;18.926;2023-08-08T09:50:40;1.70;;;1.23;;
39486;SDS011;25173;50.430;18.926;2023-08-08T09:53:41;4.97;;;1.58;;
39486;SDS011;25173;50.430;18.926;2023-08-08T09:56:44;2.42;;;1.48;;
39486;SDS011;25173;50.430;18.926;2023-08-08T09:59:48;5.22;;;1.40;;
39486;SDS011;25173;50.430;18.926;2023-08-08T10:02:51;3.83;;;1.50;;
39486;SDS011;25173;50.430;18.926;2023-08-08T10:05:52;3.35;;;1.20;;
39486;SDS011;25173;50.430;18.926;2023-08-08T10:08:56;1.77;;;1.20;;
39486;SDS011;25173;50.430;18.926;2023-08-08T10:11:57;4.15;;;1.50;;
39486;SDS011;25173;50.430;18.926;2023-08-08T10:14:59;2.63;;;1.20;;
39486;SDS011;25173;50.430;18.926;2023-08-08T10:18:00;3.20;;;1.15;;
39486;SDS011;25173;50.430;18.926;2023-08-08T10:21:04;1.40;;;1.00;;
39486;SDS011;25173;50.430;18.926;2023-08-08T10:24:07;2.20;;;0.70;;
39486;SDS011;25173;50.430;18.926;2023-08-08T10:27:10;3.15;;;1.05;;
39486;SDS011;25173;50.430;18.926;2023-08-08T10:30:11;1.70;;;1.02;;
39486;SDS011;25173;50.430;18.926;2023-08-08T10:36:23;2.53;;;1.40;;
39486;SDS011;25173;50.430;18.926;2023-08-08T10:39:24;1.50;;;1.05;;
39486;SDS011;25173;50.430;18.926;2023-08-08T10:42:29;0.98;;;0.82;;
39486;SDS011;25173;50.430;18.926;2023-08-08T10:45:31;4.13;;;1.10;;
39486;SDS011;25173;50.430;18.926;2023-08-08T10:48:54;1.95;;;1.17;;
39486;SDS011;25173;50.430;18.926;2023-08-08T10:52:02;3.35;;;0.70;;
39486;SDS011;25173;50.430;18.926;2023-08-08T10:55:03;0.98;;;0.88;;
39486;SDS011;25173;50.430;18.926;2023-08-08T10:58:09;9.38;;;1.35;;
39486;SDS011;25173;50.430;18.926;2023-08-08T11:01:16;3.40;;;0.85;;
39486;SDS011;25173;50.430;18.926;2023-08-08T11:04:20;1.05;;;0.95;;
39486;SDS011;25173;50.430;18.926;2023-08-08T11:07:23;1.73;;;1.15;;
39486;SDS011;25173;50.430;18.926;2023-08-08T11:10:28;1.73;;;0.95;;
39486;SDS011;25173;50.430;18.926;2023-08-08T11:13:34;1.25;;;0.80;;
39486;SDS011;25173;50.430;18.926;2023-08-08T11:16:35;1.75;;;1.02;;
39486;SDS011;25173;50.430;18.926;2023-08-08T11:19:39;1.15;;;1.00;;
39486;SDS011;25173;50.430;18.926;2023-08-08T11:22:41;3.60;;;1.02;;
39486;SDS011;25173;50.430;18.926;2023-08-08T11:25:43;1.73;;;0.95;;
39486;SDS011;25173;50.430;18.926;2023-08-08T11:28:51;1.52;;;1.10;;
39486;SDS011;25173;50.430;18.926;2023-08-08T11:31:52;3.00;;;1.70;;
39486;SDS011;25173;50.430;18.926;2023-08-08T11:34:57;2.33;;;1.13;;
39486;SDS011;25173;50.430;18.926;2023-08-08T11:38:04;2.17;;;1.35;;
39486;SDS011;25173;50.430;18.926;2023-08-08T11:41:05;2.17;;;0.90;;
39486;SDS011;25173;50.430;18.926;2023-08-08T11:44:06;3.03;;;1.08;;
39486;SDS011;25173;50.430;18.926;2023-08-08T11:47:08;2.42;;;1.45;;
39486;SDS011;25173;50.430;18.926;2023-08-08T11:50:09;1.48;;;1.00;;
39486;SDS011;25173;50.430;18.926;2023-08-08T11:53:11;8.18;;;1.85;;
39486;SDS011;25173;50.430;18.926;2023-08-08T11:56:12;3.20;;;1.10;;
39486;SDS011;25173;50.430;18.926;2023-08-08T11:59:16;2.17;;;1.13;;
39486;SDS011;25173;50.430;18.926;2023-08-08T12:02:16;2.08;;;1.10;;
39486;SDS011;25173;50.430;18.926;2023-08-08T12:05:20;2.60;;;1.15;;
39486;SDS011;25173;50.430;18.926;2023-08-08T12:08:23;1.35;;;0.98;;
39486;SDS011;25173;50.430;18.926;2023-08-08T12:11:24;1.23;;;1.00;;
39486;SDS011;25173;50.430;18.926;2023-08-08T12:14:24;2.17;;;1.05;;
39486;SDS011;25173;50.430;18.926;2023-08-08T12:17:25;1.70;;;1.30;;
39486;SDS011;25173;50.430;18.926;2023-08-08T12:20:29;3.65;;;1.63;;
39486;SDS011;25173;50.430;18.926;2023-08-08T12:23:31;1.17;;;0.95;;
39486;SDS011;25173;50.430;18.926;2023-08-08T12:26:32;1.92;;;1.13;;
39486;SDS011;25173;50.430;18.926;2023-08-08T12:29:33;1.58;;;1.00;;
39486;SDS011;25173;50.430;18.926;2023-08-08T12:32:33;1.35;;;1.00;;
39486;SDS011;25173;50.430;18.926;2023-08-08T12:35:34;1.33;;;0.90;;
39486;SDS011;25173;50.430;18.926;2023-08-08T12:38:35;2.20;;;1.45;;
39486;SDS011;25173;50.430;18.926;2023-08-08T12:41:35;3.17;;;1.40;;
39486;SDS011;25173;50.430;18.926;2023-08-08T12:44:36;1.67;;;0.90;;
39486;SDS011;25173;50.430;18.926;2023-08-08T12:47:37;1.60;;;0.90;;
39486;SDS011;25173;50.430;18.926;2023-08-08T12:50:38;1.75;;;1.00;;
39486;SDS011;25173;50.430;18.926;2023-08-08T12:53:39;2.22;;;1.00;;
39486;SDS011;25173;50.430;18.926;2023-08-08T12:56:40;1.38;;;0.88;;
39486;SDS011;25173;50.430;18.926;2023-08-08T12:59:41;1.55;;;1.00;;
39486;SDS011;25173;50.430;18.926;2023-08-08T13:02:42;0.80;;;0.80;;
39486;SDS011;25173;50.430;18.926;2023-08-08T13:05:43;3.33;;;1.00;;
39486;SDS011;25173;50.430;18.926;2023-08-08T13:08:44;2.95;;;0.93;;
39486;SDS011;25173;50.430;18.926;2023-08-08T13:11:45;1.17;;;1.02;;
39486;SDS011;25173;50.430;18.926;2023-08-08T13:14:46;1.40;;;1.13;;
39486;SDS011;25173;50.430;18.926;2023-08-08T13:17:46;1.10;;;1.00;;
39486;SDS011;25173;50.430;18.926;2023-08-08T13:20:47;2.60;;;1.08;;
39486;SDS011;25173;50.430;18.926;2023-08-08T13:23:47;3.20;;;1.42;;
39486;SDS011;25173;50.430;18.926;2023-08-08T13:26:52;3.85;;;1.00;;
39486;SDS011;25173;50.430;18.926;2023-08-08T13:29:53;3.27;;;1.23;;
39486;SDS011;25173;50.430;18.926;2023-08-08T13:32:54;1.90;;;1.30;;
39486;SDS011;25173;50.430;18.926;2023-08-08T13:35:54;3.08;;;1.30;;
39486;SDS011;25173;50.430;18.926;2023-08-08T13:38:55;2.22;;;0.98;;
39486;SDS011;25173;50.430;18.926;2023-08-08T13:41:55;2.53;;;1.00;;
39486;SDS011;25173;50.430;18.926;2023-08-08T13:44:56;1.45;;;1.17;;
39486;SDS011;25173;50.430;18.926;2023-08-08T13:47:57;2.00;;;0.90;;
39486;SDS011;25173;50.430;18.926;2023-08-08T13:50:58;1.73;;;0.93;;
39486;SDS011;25173;50.430;18.926;2023-08-08T13:53:59;2.08;;;1.20;;
39486;SDS011;25173;50.430;18.926;2023-08-08T13:57:00;1.77;;;1.25;;
39486;SDS011;25173;50.430;18.926;2023-08-08T14:00:02;2.58;;;1.30;;
39486;SDS011;25173;50.430;18.926;2023-08-08T14:03:08;1.80;;;1.02;;
39486;SDS011;25173;50.430;18.926;2023-08-08T14:06:11;3.28;;;1.00;;
39486;SDS011;25173;50.430;18.926;2023-08-08T14:09:12;1.65;;;1.10;;
39486;SDS011;25173;50.430;18.926;2023-08-08T14:12:13;1.00;;;0.90;;
39486;SDS011;25173;50.430;18.926;2023-08-08T14:15:14;1.52;;;1.23;;
39486;SDS011;25173;50.430;18.926;2023-08-08T14:18:17;3.75;;;1.02;;
39486;SDS011;25173;50.430;18.926;2023-08-08T14:21:18;1.50;;;1.30;;
39486;SDS011;25173;50.430;18.926;2023-08-08T14:24:18;0.90;;;0.70;;
39486;SDS011;25173;50.430;18.926;2023-08-08T14:27:19;3.03;;;1.38;;
39486;SDS011;25173;50.430;18.926;2023-08-08T14:30:20;1.52;;;1.27;;
39486;SDS011;25173;50.430;18.926;2023-08-08T14:33:21;3.53;;;1.05;;
39486;SDS011;25173;50.430;18.926;2023-08-08T14:36:22;1.63;;;1.05;;
39486;SDS011;25173;50.430;18.926;2023-08-08T14:39:23;4.60;;;1.20;;
39486;SDS011;25173;50.430;18.926;2023-08-08T14:42:24;2.97;;;1.10;;
39486;SDS011;25173;50.430;18.926;2023-08-08T14:45:24;3.17;;;1.77;;
39486;SDS011;25173;50.430;18.926;2023-08-08T14:48:25;2.60;;;1.33;;
39486;SDS011;25173;50.430;18.926;2023-08-08T14:51:26;1.63;;;1.30;;
39486;SDS011;25173;50.430;18.926;2023-08-08T14:54:26;1.20;;;1.10;;
39486;SDS011;25173;50.430;18.926;2023-08-08T14:57:27;3.38;;;1.73;;
39486;SDS011;25173;50.430;18.926;2023-08-08T15:00:27;4.10;;;2.08;;
39486;SDS011;25173;50.430;18.926;2023-08-08T15:03:28;2.47;;;1.73;;
39486;SDS011;25173;50.430;18.926;2023-08-08T15:06:28;2.40;;;1.05;;
39486;SDS011;25173;50.430;18.926;2023-08-08T15:09:29;2.95;;;1.17;;
39486;SDS011;25173;50.430;18.926;2023-08-08T15:12:29;1.35;;;1.20;;
39486;SDS011;25173;50.430;18.926;2023-08-08T15:15:30;1.88;;;1.25;;
39486;SDS011;25173;50.430;18.926;2023-08-08T15:18:31;1.70;;;0.98;;
39486;SDS011;25173;50.430;18.926;2023-08-08T15:21:31;4.70;;;1.20;;
39486;SDS011;25173;50.430;18.926;2023-08-08T15:24:32;2.13;;;1.23;;
39486;SDS011;25173;50.430;18.926;2023-08-08T15:27:34;1.42;;;1.33;;
39486;SDS011;25173;50.430;18.926;2023-08-08T15:30:35;4.15;;;1.27;;
39486;SDS011;25173;50.430;18.926;2023-08-08T15:33:35;1.67;;;1.30;;
39486;SDS011;25173;50.430;18.926;2023-08-08T15:36:37;2.30;;;1.30;;
39486;SDS011;25173;50.430;18.926;2023-08-08T15:39:37;2.65;;;1.15;;
39486;SDS011;25173;50.430;18.926;2023-08-08T15:42:38;6.90;;;1.27;;
39486;SDS011;25173;50.430;18.926;2023-08-08T15:45:40;2.95;;;1.23;;
39486;SDS011;25173;50.430;18.926;2023-08-08T15:48:41;2.60;;;1.48;;
39486;SDS011;25173;50.430;18.926;2023-08-08T15:51:41;2.13;;;1.15;;
39486;SDS011;25173;50.430;18.926;2023-08-08T15:54:42;4.72;;;1.13;;
39486;SDS011;25173;50.430;18.926;2023-08-08T15:57:43;7.43;;;1.90;;
39486;SDS011;25173;50.430;18.926;2023-08-08T16:00:43;10.82;;;1.73;;
39486;SDS011;25173;50.430;18.926;2023-08-08T16:03:44;3.25;;;1.50;;
39486;SDS011;25173;50.430;18.926;2023-08-08T16:06:44;1.20;;;1.02;;
39486;SDS011;25173;50.430;18.926;2023-08-08T16:09:45;2.72;;;1.30;;
39486;SDS011;25173;50.430;18.926;2023-08-08T16:12:46;6.53;;;2.25;;
39486;SDS011;25173;50.430;18.926;2023-08-08T16:15:46;2.70;;;1.52;;
39486;SDS011;25173;50.430;18.926;2023-08-08T16:18:47;1.75;;;1.42;;
39486;SDS011;25173;50.430;18.926;2023-08-08T16:21:47;2.85;;;1.80;;
39486;SDS011;25173;50.430;18.926;2023-08-08T16:24:48;2.90;;;1.70;;
39486;SDS011;25173;50.430;18.926;2023-08-08T16:27:49;15.88;;;5.03;;
39486;SDS011;25173;50.430;18.926;2023-08-08T16:30:49;9.65;;;5.55;;
39486;SDS011;25173;50.430;18.926;2023-08-08T16:33:50;5.78;;;3.47;;
39486;SDS011;25173;50.430;18.926;2023-08-08T16:36:50;9.57;;;4.28;;
39486;SDS011;25173;50.430;18.926;2023-08-08T16:39:51;3.45;;;2.50;;
39486;SDS011;25173;50.430;18.926;2023-08-08T16:42:51;6.68;;;2.80;;
39486;SDS011;25173;50.430;18.926;2023-08-08T16:45:52;6.10;;;2.78;;
39486;SDS011;25173;50.430;18.926;2023-08-08T16:48:53;6.82;;;3.22;;
39486;SDS011;25173;50.430;18.926;2023-08-08T16:51:53;4.50;;;2.80;;
39486;SDS011;25173;50.430;18.926;2023-08-08T16:54:54;5.95;;;2.72;;
39486;SDS011;25173;50.430;18.926;2023-08-08T16:57:54;4.43;;;2.70;;
39486;SDS011;25173;50.430;18.926;2023-08-08T17:00:55;5.05;;;2.13;;
39486;SDS011;25173;50.430;18.926;2023-08-08T17:03:57;4.18;;;2.63;;
39486;SDS011;25173;50.430;18.926;2023-08-08T17:06:58;4.25;;;2.55;;
39486;SDS011;25173;50.430;18.926;2023-08-08T17:09:59;4.07;;;2.60;;
39486;SDS011;25173;50.430;18.926;2023-08-08T17:12:59;6.18;;;3.30;;
39486;SDS011;25173;50.430;18.926;2023-08-08T17:16:00;6.43;;;3.22;;
39486;SDS011;25173;50.430;18.926;2023-08-08T17:19:02;17.70;;;6.90;;
39486;SDS011;25173;50.430;18.926;2023-08-08T17:22:03;17.52;;;8.48;;
39486;SDS011;25173;50.430;18.926;2023-08-08T17:25:04;17.52;;;9.02;;
39486;SDS011;25173;50.430;18.926;2023-08-08T17:28:05;15.82;;;8.50;;
39486;SDS011;25173;50.430;18.926;2023-08-08T17:31:06;13.70;;;7.28;;
39486;SDS011;25173;50.430;18.926;2023-08-08T17:34:06;25.70;;;16.20;;
39486;SDS011;25173;50.430;18.926;2023-08-08T17:37:07;20.25;;;13.15;;
39486;SDS011;25173;50.430;18.926;2023-08-08T17:40:08;14.70;;;8.43;;
39486;SDS011;25173;50.430;18.926;2023-08-08T17:43:09;11.85;;;6.80;;
39486;SDS011;25173;50.430;18.926;2023-08-08T17:46:10;13.00;;;8.70;;
39486;SDS011;25173;50.430;18.926;2023-08-08T17:49:10;13.48;;;9.50;;
39486;SDS011;25173;50.430;18.926;2023-08-08T17:52:11;10.35;;;5.93;;
39486;SDS011;25173;50.430;18.926;2023-08-08T17:55:11;6.45;;;3.88;;
39486;SDS011;25173;50.430;18.926;2023-08-08T17:58:12;7.10;;;4.22;;
39486;SDS011;25173;50.430;18.926;2023-08-08T18:01:13;8.25;;;3.92;;